createdAt,value
2019-02-17T00:00:36.867Z,3.586426
2019-02-17T00:05:59.523Z,3.495789
2019-02-17T00:11:22.216Z,3.173523
2019-02-17T00:16:44.885Z,3.203735
2019-02-17T00:22:07.605Z,3.072815
2019-02-17T00:27:30.307Z,3.072815
2019-02-17T00:32:53.015Z,3.51593
2019-02-17T00:38:15.944Z,3.51593
2019-02-17T00:43:38.632Z,3.707275
2019-02-17T00:49:01.398Z,3.807983
2019-02-17T00:54:24.176Z,3.7677
2019-02-17T00:59:46.840Z,4.180603
2019-02-17T01:05:09.656Z,3.807983
2019-02-17T01:10:32.392Z,3.455505
2019-02-17T01:15:55.170Z,3.344727
2019-02-17T01:21:18.445Z,3.314514
2019-02-17T01:26:41.464Z,3.536072
2019-02-17T01:32:04.208Z,3.707275
2019-02-17T01:37:26.848Z,3.707275
2019-02-17T01:42:49.591Z,3.526001
2019-02-17T01:48:12.231Z,3.284302
2019-02-17T01:53:35.878Z,3.284302
2019-02-17T01:58:59.100Z,3.445435
2019-02-17T02:04:22.473Z,3.38501
2019-02-17T02:09:45.657Z,3.304443
2019-02-17T02:15:08.289Z,3.284302
2019-02-17T02:20:31.116Z,3.63678
2019-02-17T02:25:53.785Z,4.079895
2019-02-17T02:31:16.582Z,3.717346
2019-02-17T02:36:39.264Z,3.596497
2019-02-17T02:42:01.940Z,3.928833
2019-02-17T02:47:24.680Z,3.666992
2019-02-17T02:52:47.351Z,3.223877
2019-02-17T02:58:10.193Z,2.901611
2019-02-17T03:03:32.823Z,3.163452
2019-02-17T03:08:55.710Z,3.072815
2019-02-17T03:14:18.532Z,2.841187
2019-02-17T03:19:41.340Z,2.810974
2019-02-17T03:25:04.103Z,2.478638
2019-02-17T03:30:26.967Z,2.528992
2019-02-17T03:35:49.703Z,2.428284
2019-02-17T03:41:12.464Z,2.357788
2019-02-17T03:46:35.119Z,2.549133
2019-02-17T03:51:57.792Z,2.609558
2019-02-17T03:57:22.211Z,2.478638
2019-02-17T04:02:44.985Z,2.831116
2019-02-17T04:08:08.554Z,2.76062
2019-02-17T04:13:31.319Z,2.800903
2019-02-17T04:18:54.043Z,2.921753
2019-02-17T04:24:18.202Z,2.901611
2019-02-17T04:29:41.010Z,3.082886
2019-02-17T04:35:03.659Z,3.284302
2019-02-17T04:40:26.482Z,3.163452
2019-02-17T04:45:49.984Z,3.13324
2019-02-17T04:51:13.457Z,2.941895
2019-02-17T04:56:36.221Z,3.223877
2019-02-17T05:01:59.118Z,3.123169
2019-02-17T05:07:21.795Z,3.123169
2019-02-17T05:12:44.470Z,3.01239
2019-02-17T05:18:07.157Z,2.992249
2019-02-17T05:23:29.869Z,3.072815
2019-02-17T05:28:52.661Z,2.921753
2019-02-17T05:34:15.311Z,2.992249
2019-02-17T05:39:38.526Z,3.01239
2019-02-17T05:45:01.256Z,2.649841
2019-02-17T05:50:24.000Z,2.549133
2019-02-17T05:55:46.695Z,2.468567
2019-02-17T06:01:09.418Z,2.408142
2019-02-17T06:06:32.263Z,2.6297
2019-02-17T06:11:55.877Z,2.498779
2019-02-17T06:17:18.600Z,2.478638
2019-02-17T06:22:41.376Z,2.247009
2019-02-17T06:28:04.169Z,2.065735
2019-02-17T06:33:26.883Z,1.713257
2019-02-17T06:38:49.582Z,1.38092
2019-02-17T06:44:12.279Z,1.340637
2019-02-17T06:49:35.131Z,1.260071
2019-02-17T06:54:57.866Z,1.290283
2019-02-17T07:00:20.639Z,1.139221
2019-02-17T07:05:43.303Z,1.239929
2019-02-17T07:11:05.990Z,1.441345
2019-02-17T07:16:28.759Z,2.186584
2019-02-17T07:21:51.548Z,2.589417
2019-02-17T07:27:14.311Z,2.800903
2019-02-17T07:32:37.059Z,2.982178
2019-02-17T07:37:59.781Z,3.153381
2019-02-17T07:43:22.702Z,3.314514
2019-02-17T07:48:46.228Z,3.455505
2019-02-17T07:54:09.395Z,3.63678
2019-02-17T07:59:34.238Z,3.948975
2019-02-17T08:04:57.197Z,4.200745
2019-02-17T08:10:20.153Z,4.170532
2019-02-17T08:15:42.933Z,4.351807
2019-02-17T08:21:06.656Z,4.905701
2019-02-17T08:26:29.318Z,5.39917
2019-02-17T08:31:55.620Z,5.90271
2019-02-17T08:37:14.790Z,6.396179
2019-02-17T08:42:37.545Z,6.758728
2019-02-17T08:48:00.159Z,7.29248
2019-02-17T08:53:22.952Z,7.765808
2019-02-17T08:58:45.629Z,8.239136
2019-02-17T09:04:09.240Z,8.883667
2019-02-17T09:09:31.944Z,9.346924
2019-02-17T09:14:54.646Z,9.67926
2019-02-17T09:20:17.448Z,9.749756
2019-02-17T09:25:40.925Z,9.981384
2019-02-17T09:31:03.711Z,10.1828
2019-02-17T09:36:26.476Z,10.505066
2019-02-17T09:41:49.541Z,10.67627
2019-02-17T09:47:12.376Z,11.159668
2019-02-17T09:52:36.892Z,11.411438
2019-02-17T09:57:58.929Z,11.572571
2019-02-17T10:03:21.606Z,11.673279
2019-02-17T10:08:44.385Z,11.794128
2019-02-17T10:14:08.177Z,11.81427
2019-02-17T10:19:30.823Z,11.975403
2019-02-17T10:24:53.679Z,11.784058
2019-02-17T10:30:16.478Z,12.156677
2019-02-17T10:35:40.472Z,12.408447
2019-02-17T10:41:01.968Z,12.509155
2019-02-17T10:46:24.717Z,12.891846
2019-02-17T10:51:47.584Z,12.992554
2019-02-17T10:57:10.270Z,13.133545
2019-02-17T11:02:34.047Z,13.314819
2019-02-17T11:07:57.968Z,13.475952
2019-02-17T11:13:20.872Z,13.435669
2019-02-17T11:18:43.574Z,13.757935
2019-02-17T11:24:06.405Z,13.979492
2019-02-17T11:29:29.230Z,14.261475
2019-02-17T11:34:51.915Z,14.462891
2019-02-17T11:40:16.284Z,14.603882
2019-02-17T11:45:39.182Z,14.855652
2019-02-17T11:51:01.910Z,14.613953
2019-02-17T11:56:24.673Z,14.714661
2019-02-17T12:01:47.400Z,14.936218
2019-02-17T12:07:10.158Z,15.036926
2019-02-17T12:12:33.775Z,15.268555
2019-02-17T12:17:59.075Z,15.228271
2019-02-17T12:23:19.325Z,15.08728
2019-02-17T12:28:42.899Z,15.439758
2019-02-17T12:34:05.624Z,15.681458
2019-02-17T12:39:28.343Z,15.741882
2019-02-17T12:44:51.500Z,15.812378
2019-02-17T12:50:14.240Z,16.104431
2019-02-17T12:55:37.044Z,16.366272
2019-02-17T13:00:59.730Z,16.58783
2019-02-17T13:06:22.682Z,16.748962
2019-02-17T13:11:48.033Z,17.333069
2019-02-17T13:17:08.125Z,17.796326
2019-02-17T13:22:31.091Z,17.615051
2019-02-17T13:27:53.836Z,17.403564
2019-02-17T13:33:16.539Z,17.383423
2019-02-17T13:38:39.527Z,16.567688
2019-02-17T13:44:02.381Z,16.164856
2019-02-17T13:49:25.015Z,15.772095
2019-02-17T13:54:48.768Z,15.862732
2019-02-17T14:00:11.553Z,15.59082
2019-02-17T14:05:34.221Z,15.349121
2019-02-17T14:10:58.345Z,15.298767
2019-02-17T14:16:21.207Z,15.439758
2019-02-17T14:21:52.731Z,15.600891
2019-02-17T14:27:15.754Z,15.671387
2019-02-17T14:32:38.691Z,15.661316
2019-02-17T14:38:01.534Z,15.550537
2019-02-17T14:43:24.222Z,15.530396
2019-02-17T14:54:49.872Z,15.429688
2019-02-17T15:00:21.449Z,15.248413
2019-02-17T15:05:44.266Z,15.147705
2019-02-17T15:11:08.119Z,15.33905
2019-02-17T15:16:39.580Z,15.349121
2019-02-17T15:22:13.172Z,15.379333
2019-02-17T15:27:44.676Z,15.228271
2019-02-17T15:33:07.843Z,15.147705
2019-02-17T15:38:31.634Z,15.147705
2019-02-17T15:43:54.737Z,14.895935
2019-02-17T15:49:17.800Z,14.815369
2019-02-17T15:54:40.549Z,14.533386
2019-02-17T16:00:03.706Z,14.533386
2019-02-17T16:05:26.845Z,13.647156
2019-02-17T16:10:49.864Z,12.982483
2019-02-17T16:16:12.579Z,12.539368
2019-02-17T16:21:35.277Z,11.995544
2019-02-17T16:26:58.004Z,11.391296
2019-02-17T16:32:21.788Z,11.109314
2019-02-17T16:37:43.775Z,10.756836
2019-02-17T16:43:07.809Z,10.313721
2019-02-17T16:48:30.529Z,9.729614
2019-02-17T16:53:53.422Z,9.447632
2019-02-17T16:59:16.214Z,8.934021
2019-02-17T17:04:47.794Z,8.54126
2019-02-17T17:10:03.314Z,8.712463
2019-02-17T17:15:26.302Z,8.762817
2019-02-17T17:20:49.133Z,8.551331
2019-02-17T17:26:11.874Z,8.652039
2019-02-17T17:31:34.566Z,8.67218
2019-02-17T17:36:57.408Z,9.064941
2019-02-17T17:42:21.144Z,8.964233
2019-02-17T17:47:45.112Z,9.064941
2019-02-17T17:53:07.796Z,9.336853
2019-02-17T17:58:31.458Z,9.195862
2019-02-17T18:03:54.169Z,9.29657
2019-02-17T18:09:16.893Z,9.236145
2019-02-17T18:14:39.693Z,8.893738
2019-02-17T18:20:02.492Z,8.782959
2019-02-17T18:25:25.249Z,8.702393
2019-02-17T18:30:48.025Z,8.964233
2019-02-17T18:36:11.057Z,9.226074
2019-02-17T18:41:33.748Z,9.125366
2019-02-17T18:46:56.462Z,8.803101
2019-02-17T18:52:19.451Z,8.269348
2019-02-17T18:57:49.294Z,8.249207
2019-02-17T19:03:05.451Z,8.450623
2019-02-17T19:08:28.289Z,8.42041
2019-02-17T19:13:51.145Z,8.218994
2019-02-17T19:19:13.986Z,7.816162
2019-02-17T19:24:37.057Z,7.735596
2019-02-17T19:29:59.879Z,7.393188
2019-02-17T19:35:22.591Z,7.503967
2019-02-17T19:40:46.391Z,7.846375
2019-02-17T19:46:09.126Z,7.735596
2019-02-17T19:51:32.024Z,7.604675
2019-02-17T19:56:54.913Z,7.54425
2019-02-17T20:02:17.800Z,7.423401
2019-02-17T20:07:42.047Z,7.423401
2019-02-17T20:13:08.400Z,7.362976
2019-02-17T20:18:29.876Z,7.091064
2019-02-17T20:23:52.621Z,7.050781
2019-02-17T20:29:15.323Z,6.889648
2019-02-17T20:34:38.133Z,6.77887
2019-02-17T20:40:01.197Z,7.070923
2019-02-17T20:45:23.856Z,7.050781
2019-02-17T20:50:46.611Z,7.242126
2019-02-17T20:56:09.374Z,7.211914
2019-02-17T21:01:32.057Z,7.443542
2019-02-17T21:06:54.852Z,7.111206
2019-02-17T21:12:17.700Z,7.050781
2019-02-17T21:17:40.353Z,7.29248
2019-02-17T21:23:03.143Z,7.070923
2019-02-17T21:28:25.939Z,7.121277
2019-02-17T21:33:48.757Z,7.000427
2019-02-17T21:39:11.455Z,7.000427
2019-02-17T21:44:34.119Z,7.191772
2019-02-17T21:49:56.935Z,7.191772
2019-02-17T21:55:19.603Z,6.899719
2019-02-17T22:00:42.281Z,6.748657
2019-02-17T22:06:05.676Z,6.758728
2019-02-17T22:11:28.423Z,6.688232
2019-02-17T22:16:51.238Z,6.446533
2019-02-17T22:22:14.154Z,6.607666
2019-02-17T22:27:36.790Z,6.708374
2019-02-17T22:32:59.501Z,6.5271
2019-02-17T22:38:22.154Z,6.506958
2019-02-17T22:43:44.863Z,6.476746
2019-02-17T22:49:07.492Z,6.295471
2019-02-17T22:54:30.210Z,6.386108
2019-02-17T22:59:53.080Z,6.295471
2019-02-17T23:05:15.834Z,6.325684
2019-02-17T23:10:38.814Z,6.265259
2019-02-17T23:16:01.582Z,6.27533
2019-02-17T23:21:24.534Z,6.204834
2019-02-17T23:26:47.337Z,6.265259
2019-02-17T23:32:10.308Z,6.053772
2019-02-17T23:37:33.137Z,5.882568
2019-02-17T23:42:55.859Z,5.932922
2019-02-17T23:48:18.591Z,5.489807
2019-02-17T23:53:41.385Z,6.02356
2019-02-17T23:59:04.296Z,5.842285
